Time;durP1;ratioP1;P1;durP2;ratioP2;P2;SDS_P1;SDS_P2;PMS_P1;PMS_P2;Temp;Humidity;BMP_temperature;BMP_pressure;BME280_temperature;BME280_humidity;BME280_pressure;Samples;Min_cycle;Max_cycle;Signal;HPM_P1;HPM_P2
2021/07/01 00:01:12;;;;;;;7.65;3.63;;;;;;;12.81;59.00;101047.59;5049520;28;20037;-68
2021/07/01 00:03:39;;;;;;;6.35;3.63;;;;;;;12.79;59.42;101045.03;5060552;28;20734;-68
2021/07/01 00:06:05;;;;;;;5.72;3.33;;;;;;;12.88;59.01;101044.59;5063527;28;20049;-67
2021/07/01 00:08:30;;;;;;;9.23;3.72;;;;;;;13.14;58.40;101041.66;5064858;28;20029;-68
2021/07/01 00:10:56;;;;;;;5.63;3.05;;;;;;;12.89;58.95;101043.69;5045456;28;20036;-67
2021/07/01 00:13:21;;;;;;;3.53;3.13;;;;;;;12.79;59.62;101037.19;5059553;28;20043;-67
2021/07/01 00:15:47;;;;;;;5.13;3.13;;;;;;;12.57;60.20;101037.28;5061840;28;20103;-68
2021/07/01 00:18:13;;;;;;;7.22;2.72;;;;;;;12.75;60.12;101042.63;5061491;28;20028;-68
2021/07/01 00:20:38;;;;;;;5.20;3.13;;;;;;;12.93;59.14;101039.16;5065123;28;20056;-69
2021/07/01 00:23:05;;;;;;;4.90;3.08;;;;;;;12.65;60.09;101040.41;5062059;28;20501;-68
2021/07/01 00:25:30;;;;;;;5.47;3.13;;;;;;;12.54;60.34;101034.81;5046201;28;20035;-67
2021/07/01 00:27:56;;;;;;;6.13;4.15;;;;;;;12.80;59.75;101038.03;5066837;28;20021;-68
2021/07/01 00:30:22;;;;;;;6.30;3.80;;;;;;;12.52;60.30;101031.41;5060825;28;20025;-69
2021/07/01 00:32:49;;;;;;;7.82;3.55;;;;;;;12.49;60.62;101034.16;5063429;28;20111;-68
2021/07/01 00:35:17;;;;;;;4.45;2.95;;;;;;;12.39;60.73;101027.63;5045790;28;20390;-68
2021/07/01 00:37:43;;;;;;;6.47;3.90;;;;;;;12.77;59.89;101030.31;5058911;28;20613;-69
2021/07/01 00:40:11;;;;;;;7.57;4.28;;;;;;;13.11;58.97;101029.53;5061005;28;20029;-68
2021/07/01 00:42:36;;;;;;;6.97;3.35;;;;;;;13.25;58.59;101034.13;5060059;28;20068;-68
2021/07/01 00:45:04;;;;;;;8.35;5.30;;;;;;;13.36;58.03;101029.22;5061434;28;20152;-68
2021/07/01 00:47:31;;;;;;;9.52;4.82;;;;;;;13.40;58.32;101032.53;5058758;28;20085;-68
2021/07/01 00:49:58;;;;;;;6.63;4.32;;;;;;;13.49;58.10;101043.41;5062617;28;20432;-68
2021/07/01 00:52:24;;;;;;;9.18;5.00;;;;;;;13.55;57.96;101031.75;5045838;28;20023;-68
2021/07/01 00:54:50;;;;;;;5.88;4.25;;;;;;;13.51;57.94;101022.34;5064558;28;20037;-69
2021/07/01 00:57:16;;;;;;;5.07;3.92;;;;;;;13.57;58.17;101023.84;5046283;28;20032;-68
2021/07/01 00:59:42;;;;;;;6.90;4.22;;;;;;;13.76;57.85;101026.38;5063439;28;20025;-68
2021/07/01 01:02:07;;;;;;;9.15;4.80;;;;;;;13.66;57.77;101024.22;5045815;28;20024;-68
2021/07/01 01:04:34;;;;;;;7.03;4.60;;;;;;;13.65;57.75;101022.53;5045620;28;20062;-68
2021/07/01 01:07:02;;;;;;;13.10;4.80;;;;;;;13.80;57.95;101026.13;5062515;28;20166;-68
2021/07/01 01:09:28;;;;;;;9.10;4.93;;;;;;;13.83;57.71;101019.88;5063194;28;20115;-68
2021/07/01 01:11:54;;;;;;;12.13;5.75;;;;;;;13.79;57.56;101021.84;5060001;28;20600;-69
2021/07/01 01:14:21;;;;;;;12.60;5.80;;;;;;;13.82;57.88;101018.19;5060754;28;23136;-68
2021/07/01 01:16:56;;;;;;;12.15;5.38;;;;;;;13.92;57.88;101019.44;5062465;28;20090;-68
2021/07/01 01:19:22;;;;;;;7.38;5.22;;;;;;;13.60;58.50;101011.41;5061074;28;20032;-67
2021/07/01 01:21:48;;;;;;;11.35;5.07;;;;;;;13.86;58.03;101017.13;5060629;28;20017;-67
2021/07/01 01:24:15;;;;;;;10.13;5.97;;;;;;;14.02;57.54;101014.53;5043974;28;20025;-68
2021/07/01 01:26:41;;;;;;;8.30;5.57;;;;;;;14.11;57.62;101016.69;5063530;28;20056;-67
2021/07/01 01:29:07;;;;;;;6.75;4.88;;;;;;;14.14;57.81;101020.00;5059789;28;20465;-67
2021/07/01 01:31:36;;;;;;;8.65;4.50;;;;;;;14.22;57.78;101027.47;5063476;28;20024;-67
2021/07/01 01:34:02;;;;;;;11.65;5.85;;;;;;;14.23;57.59;101017.78;5060670;28;20037;-68
2021/07/01 01:36:27;;;;;;;11.90;5.50;;;;;;;14.27;57.82;101014.91;5061872;28;20074;-68
2021/07/01 01:38:55;;;;;;;7.97;4.25;;;;;;;14.33;57.75;101019.84;5063292;28;20058;-67
2021/07/01 01:41:41;;;;;;;6.57;5.88;;;;;;;14.39;57.25;101009.94;5063629;28;20367;-67
2021/07/01 01:44:06;;;;;;;6.88;3.80;;;;;;;14.42;57.34;101017.72;5061694;28;20043;-67
2021/07/01 01:46:34;;;;;;;7.85;5.15;;;;;;;14.47;57.47;101015.66;5067452;28;20040;-67
2021/07/01 01:48:59;;;;;;;6.55;5.07;;;;;;;14.46;57.52;101014.00;5061443;28;20029;-68
2021/07/01 01:51:25;;;;;;;8.32;5.30;;;;;;;14.59;57.38;101012.38;5064318;28;20031;-67
2021/07/01 01:53:58;;;;;;;5.65;3.67;;;;;;;14.67;57.40;101007.53;5064231;28;20665;-68
2021/07/01 01:56:23;;;;;;;7.80;4.80;;;;;;;14.72;57.51;101010.78;5065546;28;20051;-67
2021/07/01 01:58:49;;;;;;;6.03;4.00;;;;;;;14.81;57.46;101009.38;5049341;28;20052;-68
2021/07/01 02:01:35;;;;;;;9.07;5.40;;;;;;;14.89;57.63;101006.34;5056805;28;20097;-68
2021/07/01 02:04:07;;;;;;;6.32;5.10;;;;;;;14.93;57.50;101000.81;5048096;28;20093;-68
2021/07/01 02:06:40;;;;;;;8.30;5.18;;;;;;;14.97;57.57;101009.41;5061467;28;20040;-67
2021/07/01 02:09:06;;;;;;;8.93;5.78;;;;;;;15.06;57.41;100997.47;5062551;28;20705;-67
2021/07/01 02:11:41;;;;;;;13.93;5.32;;;;;;;15.17;57.80;101006.47;5058834;28;20063;-69
2021/07/01 02:14:07;;;;;;;7.95;5.30;;;;;;;15.25;57.93;100999.94;5063738;28;20474;-68
2021/07/01 02:16:55;;;;;;;8.50;5.57;;;;;;;15.33;58.08;100997.72;5064167;28;20109;-69
2021/07/01 02:19:22;;;;;;;16.77;7.75;;;;;;;15.35;58.34;101003.75;5048236;28;20402;-68
2021/07/01 02:21:48;;;;;;;15.32;7.57;;;;;;;15.51;58.14;100994.00;5048280;28;20090;-68
2021/07/01 02:24:14;;;;;;;11.27;7.95;;;;;;;15.41;58.82;100998.09;5062721;28;20029;-68
2021/07/01 02:26:40;;;;;;;18.40;8.52;;;;;;;15.50;58.83;101007.25;5067147;28;20028;-68
2021/07/01 02:29:06;;;;;;;21.00;8.63;;;;;;;15.42;58.79;100994.56;5046256;28;20952;-68
2021/07/01 02:31:33;;;;;;;16.58;8.70;;;;;;;15.38;58.92;101007.03;5064346;28;20417;-69
2021/07/01 02:33:59;;;;;;;23.05;10.85;;;;;;;15.33;59.22;101003.00;5047727;28;20028;-68
2021/07/01 02:36:44;;;;;;;21.98;10.23;;;;;;;15.33;59.31;101001.22;5064673;28;20120;-68
2021/07/01 02:39:30;;;;;;;27.05;12.60;;;;;;;15.50;58.64;101002.84;5052847;28;20048;-67
2021/07/01 02:41:56;;;;;;;27.50;12.73;;;;;;;15.64;58.21;101012.59;5062565;28;20036;-68
2021/07/01 02:44:21;;;;;;;18.48;11.07;;;;;;;15.50;58.54;101005.47;5063945;28;20032;-67
2021/07/01 02:47:10;;;;;;;27.42;13.13;;;;;;;15.66;58.14;101008.06;5018436;28;20052;-67
2021/07/01 02:49:38;;;;;;;23.65;13.10;;;;;;;15.57;58.60;100998.94;5065861;28;20035;-68
2021/07/01 02:52:12;;;;;;;35.25;16.92;;;;;;;15.17;59.65;101011.75;5063224;28;20548;-67
2021/07/01 02:54:38;;;;;;;29.42;14.20;;;;;;;15.55;58.50;101011.34;5051197;28;20024;-68
2021/07/01 02:57:04;;;;;;;29.52;15.55;;;;;;;15.56;58.53;101002.47;5044544;28;20048;-68
2021/07/01 02:59:32;;;;;;;33.50;15.30;;;;;;;15.62;58.46;101005.69;5044921;28;20032;-68
2021/07/01 03:02:04;;;;;;;30.20;14.23;;;;;;;15.68;58.43;101006.16;5064060;28;20032;-68
2021/07/01 03:04:36;;;;;;;26.05;13.50;;;;;;;15.64;58.22;101009.94;5063268;28;20033;-68
2021/07/01 03:07:01;;;;;;;31.33;13.05;;;;;;;15.74;58.07;101002.34;5064223;28;20020;-68
2021/07/01 03:09:27;;;;;;;28.65;12.82;;;;;;;15.75;57.98;101007.53;5064196;28;20028;-67
2021/07/01 03:11:52;;;;;;;25.33;13.15;;;;;;;15.52;58.50;101002.75;5063293;28;20028;-67
2021/07/01 03:14:18;;;;;;;32.47;14.15;;;;;;;15.77;57.79;101010.03;5061415;28;20033;-67
2021/07/01 03:16:43;;;;;;;22.83;12.88;;;;;;;15.76;57.84;101005.72;5065563;28;20440;-68
2021/07/01 03:19:09;;;;;;;42.42;13.38;;;;;;;15.73;57.72;100998.84;5062255;28;20521;-67
2021/07/01 03:22:01;;;;;;;24.02;11.80;;;;;;;15.56;58.41;101004.28;5054861;28;20513;-69
2021/07/01 03:24:27;;;;;;;26.65;12.05;;;;;;;15.80;57.65;101004.59;5062120;28;20028;-67
2021/07/01 03:26:53;;;;;;;36.47;12.90;;;;;;;15.79;57.62;101003.75;5063081;28;20106;-67
2021/07/01 03:29:19;;;;;;;25.13;11.27;;;;;;;15.79;57.45;101008.16;5062612;28;20059;-68
2021/07/01 03:31:45;;;;;;;17.27;10.45;;;;;;;15.70;58.15;101003.44;5061391;28;20028;-68
2021/07/01 03:34:10;;;;;;;35.63;12.15;;;;;;;15.69;57.96;100999.13;5059688;28;20393;-66
2021/07/01 03:36:39;;;;;;;21.42;10.93;;;;;;;15.36;58.88;100998.38;5060748;28;20036;-66
2021/07/01 03:39:30;;;;;;;27.37;10.87;;;;;;;15.88;57.23;100996.22;5060941;28;20049;-67
2021/07/01 03:42:20;;;;;;;28.33;11.95;;;;;;;15.86;57.40;100993.66;5049585;28;20728;-67
2021/07/01 03:44:46;;;;;;;20.15;10.05;;;;;;;15.87;57.48;100995.38;5059812;28;20701;-67
2021/07/01 03:47:12;;;;;;;19.95;10.15;;;;;;;15.70;57.70;100999.03;5061774;28;20024;-67
2021/07/01 03:49:37;;;;;;;26.33;10.68;;;;;;;15.72;57.51;101001.56;5060173;28;20374;-67
2021/07/01 03:52:15;;;;;;;23.08;10.65;;;;;;;15.99;57.03;101006.97;5062283;28;20043;-66
2021/07/01 03:54:46;;;;;;;25.85;9.82;;;;;;;15.73;57.65;101003.28;5059351;28;20032;-67
2021/07/01 03:57:12;;;;;;;17.88;9.75;;;;;;;15.51;58.38;101004.56;5042513;28;20032;-67
2021/07/01 03:59:48;;;;;;;19.80;9.70;;;;;;;15.63;58.15;101002.13;5060252;28;20043;-66
2021/07/01 04:02:33;;;;;;;17.23;8.85;;;;;;;15.71;57.77;101010.44;5060108;28;20098;-66
2021/07/01 04:05:00;;;;;;;18.45;8.30;;;;;;;15.93;57.27;101010.84;5061202;28;20072;-67
2021/07/01 04:07:26;;;;;;;22.05;9.05;;;;;;;15.91;57.13;101017.16;5061195;28;20565;-67
2021/07/01 04:09:52;;;;;;;19.35;9.68;;;;;;;15.84;57.56;101016.66;5059902;28;20039;-67
2021/07/01 04:12:46;;;;;;;18.42;9.75;;;;;;;15.82;57.40;101013.28;5061168;28;20033;-67
2021/07/01 04:15:30;;;;;;;22.38;10.85;;;;;;;15.74;57.64;101013.72;5061350;28;20067;-67
2021/07/01 04:18:15;;;;;;;17.42;9.30;;;;;;;15.93;57.19;101013.47;5061734;28;20047;-67
2021/07/01 04:20:59;;;;;;;26.10;9.85;;;;;;;15.87;57.11;101016.47;5060317;28;20051;-68
2021/07/01 04:23:43;;;;;;;14.50;9.23;;;;;;;15.88;57.58;101017.31;5058568;28;20101;-68
2021/07/01 04:26:32;;;;;;;27.90;10.48;;;;;;;15.99;57.16;101031.56;5053290;28;20040;-68
2021/07/01 04:28:59;;;;;;;20.40;9.98;;;;;;;16.00;56.81;101021.88;5042879;28;20064;-67
2021/07/01 04:31:25;;;;;;;19.38;8.52;;;;;;;16.00;57.10;101025.38;5058384;28;20082;-67
2021/07/01 04:33:57;;;;;;;19.92;8.93;;;;;;;16.05;57.18;101026.88;5056174;28;20033;-67
2021/07/01 04:36:23;;;;;;;19.98;9.55;;;;;;;16.11;56.88;101024.72;5054801;28;20115;-67
2021/07/01 04:38:49;;;;;;;18.77;8.88;;;;;;;16.20;56.76;101031.22;5057095;28;20039;-67
2021/07/01 04:41:20;;;;;;;21.33;10.05;;;;;;;16.15;56.99;101034.13;5056646;28;20531;-67
2021/07/01 04:43:50;;;;;;;20.38;9.40;;;;;;;16.13;57.01;101029.88;5061884;28;20433;-66
2021/07/01 04:46:17;;;;;;;19.40;8.77;;;;;;;15.93;57.53;101031.06;5059385;28;20033;-67
2021/07/01 04:48:47;;;;;;;16.05;8.68;;;;;;;16.07;56.83;101035.53;5059533;28;20059;-67
2021/07/01 04:51:13;;;;;;;12.80;8.50;;;;;;;15.76;57.74;101032.06;5060145;28;20581;-67
2021/07/01 04:54:14;;;;;;;14.82;7.90;;;;;;;15.79;57.83;101037.16;5057505;28;20127;-68
2021/07/01 04:56:58;;;;;;;15.82;8.23;;;;;;;15.98;57.16;101042.19;5059353;28;20051;-67
2021/07/01 04:59:23;;;;;;;18.42;9.60;;;;;;;15.88;57.38;101039.22;5056052;28;20088;-67
2021/07/01 05:01:58;;;;;;;17.92;8.98;;;;;;;15.72;57.83;101041.94;5061086;28;20036;-67
2021/07/01 05:04:42;;;;;;;16.67;10.43;;;;;;;15.73;57.94;101034.91;5060212;28;20123;-67
2021/07/01 05:07:09;;;;;;;17.80;8.50;;;;;;;15.92;57.50;101040.75;5060323;28;20064;-68
2021/07/01 05:09:38;;;;;;;19.90;9.98;;;;;;;15.80;57.62;101041.50;5056539;28;20038;-67
2021/07/01 05:12:27;;;;;;;17.85;8.55;;;;;;;15.87;57.52;101034.06;5058193;28;20044;-67
2021/07/01 05:14:53;;;;;;;20.95;9.52;;;;;;;15.85;57.58;101047.34;5058311;28;20037;-68
2021/07/01 05:17:18;;;;;;;21.27;9.52;;;;;;;15.67;58.27;101040.53;5046564;28;20561;-67
2021/07/01 05:19:44;;;;;;;13.20;8.70;;;;;;;15.78;58.01;101040.75;5063039;28;20123;-67
2021/07/01 05:22:14;;;;;;;14.35;7.88;;;;;;;15.76;58.02;101045.25;5063169;28;20484;-67
2021/07/01 05:24:58;;;;;;;13.88;8.68;;;;;;;15.82;57.83;101039.63;5063415;28;20110;-67
2021/07/01 05:27:42;;;;;;;14.18;8.73;;;;;;;15.58;58.90;101039.28;5065373;28;20059;-67
2021/07/01 05:30:26;;;;;;;11.75;7.90;;;;;;;15.73;58.21;101034.91;5064605;28;20628;-67
2021/07/01 05:33:24;;;;;;;17.17;8.95;;;;;;;15.98;57.45;101040.38;5051940;28;20750;-67
2021/07/01 05:35:52;;;;;;;13.48;8.15;;;;;;;15.97;57.61;101033.44;5063863;28;20040;-68
2021/07/01 05:38:18;;;;;;;15.52;8.18;;;;;;;15.95;57.62;101039.72;5046960;28;20028;-68
2021/07/01 05:40:44;;;;;;;13.13;8.60;;;;;;;16.26;56.86;101032.63;5045715;28;20032;-66
2021/07/01 05:43:09;;;;;;;13.65;8.48;;;;;;;16.22;57.13;101039.88;5062412;28;20126;-67
2021/07/01 05:45:36;;;;;;;24.30;8.40;;;;;;;15.95;57.98;101037.94;5063209;28;20687;-68
2021/07/01 05:48:02;;;;;;;13.25;7.57;;;;;;;15.89;58.06;101046.22;5063483;28;20037;-68
2021/07/01 05:50:30;;;;;;;15.85;7.85;;;;;;;16.11;57.54;101044.97;5046311;28;20043;-68
2021/07/01 05:53:01;;;;;;;13.68;8.35;;;;;;;15.94;58.22;101046.78;5060005;28;20040;-68
2021/07/01 05:55:26;;;;;;;19.15;8.48;;;;;;;15.89;57.95;101043.59;5063297;28;20048;-69
2021/07/01 05:57:52;;;;;;;14.27;8.48;;;;;;;16.01;57.58;101049.94;5065262;28;20043;-68
2021/07/01 06:00:18;;;;;;;13.77;7.43;;;;;;;15.99;57.92;101054.41;5059034;28;20059;-68
2021/07/01 06:02:50;;;;;;;20.15;9.38;;;;;;;16.04;57.78;101052.41;5057282;28;20036;-67
2021/07/01 06:05:16;;;;;;;14.63;8.27;;;;;;;16.18;57.64;101046.28;5064006;28;20206;-68
2021/07/01 06:08:00;;;;;;;16.60;8.75;;;;;;;16.27;57.40;101050.16;5061102;28;20054;-67
2021/07/01 06:10:27;;;;;;;15.57;7.97;;;;;;;16.56;56.45;101051.81;5065077;28;20036;-68
2021/07/01 06:12:54;;;;;;;11.88;6.75;;;;;;;16.54;56.13;101055.50;5045778;28;20096;-68
2021/07/01 06:15:20;;;;;;;9.18;6.45;;;;;;;16.58;56.46;101054.38;5062812;28;20039;-68
2021/07/01 06:17:47;;;;;;;16.80;8.23;;;;;;;16.54;56.29;101058.13;5060870;28;20066;-68
2021/07/01 06:20:13;;;;;;;11.95;8.32;;;;;;;16.47;56.57;101057.69;5062946;28;20521;-67
2021/07/01 06:22:39;;;;;;;15.85;8.45;;;;;;;15.99;57.86;101055.28;5063781;28;20033;-68
2021/07/01 06:25:05;;;;;;;17.65;9.27;;;;;;;16.36;57.11;101058.34;5063138;28;20029;-68
2021/07/01 06:27:38;;;;;;;18.95;9.15;;;;;;;16.49;56.74;101055.78;5059673;28;20036;-68
2021/07/01 06:30:09;;;;;;;14.13;8.02;;;;;;;16.06;57.88;101057.56;5066169;28;20036;-68
2021/07/01 06:32:44;;;;;;;14.65;8.50;;;;;;;16.10;57.92;101059.06;5047118;28;20035;-69
2021/07/01 06:35:17;;;;;;;12.50;7.57;;;;;;;16.44;56.95;101062.28;5063611;28;20033;-68
2021/07/01 06:37:44;;;;;;;11.85;7.90;;;;;;;16.66;56.22;101054.72;5064039;28;20032;-68
2021/07/01 06:40:34;;;;;;;17.42;8.02;;;;;;;16.56;56.63;101058.91;5064955;28;20062;-68
2021/07/01 06:43:26;;;;;;;14.90;7.85;;;;;;;16.47;56.74;101059.47;5041933;28;20094;-68
2021/07/01 06:46:12;;;;;;;16.33;8.38;;;;;;;16.76;56.04;101062.94;5063158;28;20101;-68
2021/07/01 06:48:57;;;;;;;20.92;8.15;;;;;;;16.75;56.15;101062.09;5065627;28;20051;-68
2021/07/01 06:51:42;;;;;;;13.57;7.28;;;;;;;16.69;56.17;101066.88;5065810;28;20051;-68
2021/07/01 06:54:27;;;;;;;17.52;8.32;;;;;;;16.58;56.44;101076.31;5061708;28;20051;-68
2021/07/01 06:57:11;;;;;;;17.50;7.75;;;;;;;16.85;56.04;101069.44;5065441;28;20083;-69
2021/07/01 06:59:38;;;;;;;14.85;8.80;;;;;;;16.87;55.81;101070.16;5064414;28;20071;-68
2021/07/01 07:02:04;;;;;;;17.55;8.55;;;;;;;16.93;55.48;101067.16;5051041;28;20033;-68
2021/07/01 07:04:31;;;;;;;14.02;8.63;;;;;;;16.88;56.04;101067.44;5061962;28;20037;-68
2021/07/01 07:06:58;;;;;;;10.70;8.38;;;;;;;16.62;56.50;101069.03;5063849;28;20529;-68
2021/07/01 07:09:24;;;;;;;12.45;8.57;;;;;;;16.87;56.00;101071.03;5065204;28;20039;-68
2021/07/01 07:11:50;;;;;;;14.30;8.38;;;;;;;16.80;56.00;101070.56;5065750;28;20033;-69
2021/07/01 07:14:16;;;;;;;15.75;7.05;;;;;;;16.49;57.37;101070.75;5063464;28;20162;-68
2021/07/01 07:16:42;;;;;;;11.23;7.45;;;;;;;16.94;55.99;101072.34;5066335;28;20107;-67
2021/07/01 07:19:09;;;;;;;15.30;7.90;;;;;;;17.19;55.23;101076.88;5061605;28;20052;-70
2021/07/01 07:21:42;;;;;;;15.63;7.78;;;;;;;16.84;56.12;101076.50;5057333;28;20119;-69
2021/07/01 07:24:09;;;;;;;17.20;8.07;;;;;;;16.91;56.14;101076.94;5060212;28;20044;-68
2021/07/01 07:26:36;;;;;;;18.63;7.75;;;;;;;16.72;56.18;101085.16;5048372;28;20040;-69
2021/07/01 07:29:02;;;;;;;16.52;8.30;;;;;;;16.80;56.65;101089.06;5064733;28;20073;-71
2021/07/01 07:31:29;;;;;;;13.18;6.97;;;;;;;16.96;55.97;101090.72;5065215;28;20833;-69
2021/07/01 07:34:00;;;;;;;15.90;8.10;;;;;;;16.82;56.46;101092.44;5064453;28;20075;-68
2021/07/01 07:36:26;;;;;;;;;;;;;;;16.81;56.30;101088.09;5063265;28;20036;-68
2021/07/01 07:38:54;;;;;;;16.38;6.85;;;;;;;17.01;55.72;101083.34;5060898;28;19923;-68
2021/07/01 07:41:21;;;;;;;10.82;6.55;;;;;;;16.65;56.46;101094.41;5060879;28;20450;-68
2021/07/01 07:43:48;;;;;;;16.17;8.05;;;;;;;16.70;56.47;101087.06;5060969;28;20020;-67
2021/07/01 07:46:17;;;;;;;12.27;8.20;;;;;;;16.81;56.40;101087.25;5056286;28;20059;-68
2021/07/01 07:48:43;;;;;;;16.98;7.95;;;;;;;16.87;56.50;101091.28;5061166;28;20033;-68
2021/07/01 07:51:11;;;;;;;15.65;7.53;;;;;;;16.95;56.15;101089.84;5059248;28;20063;-67
2021/07/01 07:53:39;;;;;;;11.18;6.95;;;;;;;17.20;55.43;101089.16;5060199;28;20032;-67
2021/07/01 07:56:07;;;;;;;17.33;9.38;;;;;;;17.60;54.74;101090.97;5049022;28;20037;-68
2021/07/01 07:58:38;;;;;;;13.75;8.05;;;;;;;17.54;54.80;101092.25;5053269;28;20032;-68
2021/07/01 08:01:03;;;;;;;15.43;8.40;;;;;;;17.42;55.01;101087.72;5049750;28;20044;-69
2021/07/01 08:03:35;;;;;;;14.23;7.82;;;;;;;17.18;55.56;101088.41;5059797;28;20093;-68
2021/07/01 08:06:02;;;;;;;12.35;7.75;;;;;;;17.20;55.86;101089.16;5060289;28;20041;-70
2021/07/01 08:08:32;;;;;;;11.57;6.93;;;;;;;17.47;55.13;101090.06;5062134;28;20626;-69
2021/07/01 08:11:03;;;;;;;13.25;7.07;;;;;;;17.31;55.92;101095.50;5059270;28;20032;-68
2021/07/01 08:13:30;;;;;;;23.00;7.80;;;;;;;18.01;53.81;101090.84;5058234;28;20059;-68
2021/07/01 08:15:56;;;;;;;13.70;7.47;;;;;;;18.14;53.76;101095.28;5059528;28;20036;-69
2021/07/01 08:18:36;;;;;;;14.77;8.38;;;;;;;18.68;52.65;101095.91;5061603;28;20504;-68
2021/07/01 08:21:02;;;;;;;12.73;7.20;;;;;;;18.33;53.67;101093.09;5066576;28;20147;-69
2021/07/01 08:23:27;;;;;;;12.15;6.80;;;;;;;19.14;51.14;101097.06;5041488;28;20070;-69
2021/07/01 08:25:56;;;;;;;17.23;6.68;;;;;;;19.39;50.32;101093.50;5052287;28;20882;-67
2021/07/01 08:28:22;;;;;;;10.13;6.40;;;;;;;19.27;50.47;101087.28;5059018;28;20035;-68
2021/07/01 08:30:49;;;;;;;10.95;5.75;;;;;;;19.26;50.21;101090.91;5058840;28;20885;-67
2021/07/01 08:33:20;;;;;;;10.05;6.10;;;;;;;19.82;49.89;101097.41;5058142;28;20032;-68
2021/07/01 08:35:54;;;;;;;10.57;6.60;;;;;;;19.45;49.66;101102.78;5059144;28;20116;-68
2021/07/01 08:38:20;;;;;;;15.27;6.22;;;;;;;19.43;50.02;101096.75;5060840;28;20090;-69
2021/07/01 08:40:49;;;;;;;7.88;5.70;;;;;;;19.35;49.82;101097.31;5058805;28;20036;-68
2021/07/01 08:43:19;;;;;;;7.88;5.40;;;;;;;19.43;49.82;101107.34;5066163;28;20572;-68
2021/07/01 08:46:07;;;;;;;14.57;7.32;;;;;;;19.40;49.37;101113.72;5058050;28;20081;-69
2021/07/01 08:48:42;;;;;;;8.88;5.20;;;;;;;19.32;49.80;101116.06;5062905;28;20062;-69
2021/07/01 08:51:10;;;;;;;14.02;7.18;;;;;;;19.34;49.89;101119.47;5067774;28;20028;-69
2021/07/01 08:53:35;;;;;;;8.27;6.47;;;;;;;18.78;51.00;101119.09;5070391;28;20036;-70
2021/07/01 08:56:03;;;;;;;13.48;8.00;;;;;;;18.70;51.41;101119.66;5066457;28;20035;-69
2021/07/01 08:58:32;;;;;;;13.52;7.13;;;;;;;18.52;52.26;101120.91;5065334;28;20062;-70
2021/07/01 09:01:00;;;;;;;14.23;7.68;;;;;;;19.10;50.48;101119.47;5067142;28;20386;-69
2021/07/01 09:03:32;;;;;;;11.85;6.65;;;;;;;18.85;51.11;101118.56;5064453;28;20028;-70
2021/07/01 09:06:03;;;;;;;13.90;7.50;;;;;;;18.98;50.83;101123.00;5064700;28;20136;-69
2021/07/01 09:08:31;;;;;;;13.20;7.00;;;;;;;19.50;50.12;101121.81;5064606;28;20062;-68
2021/07/01 09:11:04;;;;;;;10.85;6.72;;;;;;;19.37;50.14;101123.69;5060883;28;20039;-69
2021/07/01 09:13:31;;;;;;;12.48;7.05;;;;;;;19.18;50.61;101113.59;5063220;28;20040;-68
2021/07/01 09:15:57;;;;;;;13.85;7.45;;;;;;;19.21;50.55;101119.53;5065055;28;20020;-69
2021/07/01 09:18:26;;;;;;;11.52;7.43;;;;;;;19.55;49.14;101114.44;5065486;28;20086;-69
2021/07/01 09:20:54;;;;;;;13.18;7.97;;;;;;;19.67;48.95;101116.16;5063078;28;20040;-70
2021/07/01 09:23:22;;;;;;;11.68;6.93;;;;;;;19.61;48.54;101119.25;5061241;28;20551;-69
2021/07/01 09:25:51;;;;;;;15.40;7.75;;;;;;;19.01;50.10;101128.94;5063661;28;20037;-69
2021/07/01 09:28:17;;;;;;;17.15;7.75;;;;;;;18.98;51.11;101133.59;5067377;28;20120;-69
2021/07/01 09:30:48;;;;;;;14.02;8.55;;;;;;;19.01;50.21;101138.66;5066867;28;20108;-70
2021/07/01 09:33:14;;;;;;;14.52;8.00;;;;;;;19.70;49.04;101131.84;5067183;28;20016;-68
2021/07/01 09:35:39;;;;;;;17.73;8.70;;;;;;;20.23;47.84;101127.91;5061906;28;20380;-70
2021/07/01 09:38:07;;;;;;;19.83;8.43;;;;;;;20.20;47.15;101133.44;5061169;28;20044;-70
2021/07/01 09:40:35;;;;;;;13.35;7.22;;;;;;;19.89;47.55;101130.44;5058225;28;20094;-69
2021/07/01 09:43:04;;;;;;;15.43;6.88;;;;;;;19.57;48.08;101136.38;5042148;28;20509;-68
2021/07/01 09:45:32;;;;;;;11.57;6.78;;;;;;;19.43;48.78;101144.44;5077475;28;20040;-68
2021/07/01 09:48:06;;;;;;;12.32;7.18;;;;;;;19.09;50.12;101144.25;5061284;28;20037;-69
2021/07/01 09:50:35;;;;;;;14.95;8.68;;;;;;;19.92;48.33;101140.81;5052962;28;20068;-68
2021/07/01 09:53:04;;;;;;;14.13;7.97;;;;;;;20.18;47.63;101151.28;5058348;28;20790;-68
2021/07/01 09:55:31;;;;;;;13.13;7.82;;;;;;;20.13;47.53;101143.66;5060965;28;20047;-69
2021/07/01 09:58:09;;;;;;;13.07;7.82;;;;;;;20.68;45.98;101141.19;5060664;28;20055;-68
2021/07/01 10:00:35;;;;;;;14.40;7.20;;;;;;;20.71;46.21;101147.13;5061301;28;20029;-68
2021/07/01 10:03:05;;;;;;;13.45;7.80;;;;;;;20.78;45.45;101155.44;5059336;28;20173;-68
2021/07/01 10:05:32;;;;;;;11.02;7.75;;;;;;;20.54;45.86;101148.44;5062192;28;20181;-69
2021/07/01 10:07:58;;;;;;;16.27;7.72;;;;;;;20.12;47.29;101161.38;5063582;28;20405;-68
2021/07/01 10:10:25;;;;;;;11.93;7.80;;;;;;;19.92;47.47;101156.72;5059991;28;20092;-67
2021/07/01 10:12:56;;;;;;;15.25;7.90;;;;;;;19.63;48.13;101151.81;5057271;28;20461;-68
2021/07/01 10:15:29;;;;;;;10.43;7.13;;;;;;;19.56;47.70;101157.69;5042779;28;20036;-68
2021/07/01 10:18:08;;;;;;;15.70;8.50;;;;;;;19.35;48.75;101157.44;5048987;28;20143;-69
2021/07/01 10:20:46;;;;;;;14.23;8.38;;;;;;;19.99;47.62;101155.31;5060520;28;20032;-68
2021/07/01 10:23:33;;;;;;;15.63;8.77;;;;;;;20.46;47.17;101157.97;5058300;28;20032;-69
2021/07/01 10:26:15;;;;;;;15.75;8.07;;;;;;;20.72;45.87;101158.59;5059078;28;20418;-68
2021/07/01 10:28:41;;;;;;;10.90;7.40;;;;;;;20.83;45.09;101169.19;5051686;28;20033;-70
2021/07/01 10:31:12;;;;;;;10.70;8.00;;;;;;;20.22;46.58;101163.38;5043174;28;20645;-68
2021/07/01 10:33:41;;;;;;;14.82;8.70;;;;;;;20.27;46.11;101162.03;5061223;28;20042;-68
2021/07/01 10:36:15;;;;;;;12.80;7.57;;;;;;;20.36;46.41;101160.50;5051744;28;20147;-68
2021/07/01 10:38:46;;;;;;;16.17;8.00;;;;;;;20.15;46.93;101167.41;5061825;28;20047;-68
2021/07/01 10:41:50;;;;;;;20.88;9.20;;;;;;;20.28;46.63;101173.50;5058716;28;20044;-67
2021/07/01 10:44:22;;;;;;;13.60;7.85;;;;;;;20.72;45.88;101166.56;5044356;28;20048;-68
2021/07/01 10:46:48;;;;;;;14.98;8.18;;;;;;;20.81;44.90;101165.81;5061753;28;20092;-68
2021/07/01 10:49:16;;;;;;;15.43;8.38;;;;;;;20.97;45.33;101167.28;5042595;28;20090;-68
2021/07/01 10:51:56;;;;;;;13.30;8.20;;;;;;;20.76;45.83;101165.34;5068710;28;20047;-69
2021/07/01 10:54:22;;;;;;;15.73;9.30;;;;;;;20.98;45.57;101163.69;5055310;28;20359;-69
2021/07/01 10:56:53;;;;;;;15.02;7.25;;;;;;;21.41;44.41;101157.53;5059630;28;20056;-69
2021/07/01 10:59:19;;;;;;;;;;;;;;;21.25;44.04;101165.94;5060264;28;20028;-68
2021/07/01 11:01:47;;;;;;;15.80;8.10;;;;;;;20.70;45.01;101157.84;5059233;28;20424;-68
2021/07/01 11:04:14;;;;;;;13.35;8.25;;;;;;;20.71;45.62;101167.53;5057567;28;20029;-68
2021/07/01 11:06:42;;;;;;;18.45;9.38;;;;;;;21.18;44.14;101162.94;5042972;28;20098;-68
2021/07/01 11:09:11;;;;;;;17.58;8.25;;;;;;;21.65;43.07;101166.19;5056896;28;20037;-69
2021/07/01 11:11:42;;;;;;;16.92;8.35;;;;;;;20.96;44.33;101162.97;5059420;28;20512;-69
2021/07/01 11:14:13;;;;;;;13.35;8.05;;;;;;;21.36;43.85;101161.41;5058101;28;20115;-67
2021/07/01 11:16:41;;;;;;;;;;;;;;;21.55;43.96;101170.56;5059654;28;20048;-67
2021/07/01 11:19:13;;;;;;;12.43;7.97;;;;;;;21.55;44.43;101165.25;5058326;28;19967;-68
2021/07/01 11:21:53;;;;;;;15.77;7.47;;;;;;;21.38;43.79;101163.09;5060775;28;20849;-68
2021/07/01 11:24:21;;;;;;;10.90;7.78;;;;;;;21.42;43.77;101165.38;5059604;28;20047;-68
2021/07/01 11:26:52;;;;;;;14.18;10.40;;;;;;;21.47;43.00;101167.69;5044427;28;20032;-69
2021/07/01 11:29:38;;;;;;;11.70;6.72;;;;;;;21.91;42.14;101161.38;5051874;28;20032;-68
2021/07/01 11:32:26;;;;;;;11.13;6.18;;;;;;;21.80;41.50;101165.88;5061632;28;20048;-68
2021/07/01 11:34:53;;;;;;;9.30;5.95;;;;;;;21.91;42.64;101177.34;5052940;28;20094;-69